createdAt,value
2017-10-05T00:01:48.743Z,14.90
2017-10-05T00:04:19.432Z,14.90
2017-10-05T00:06:48.465Z,14.90
2017-10-05T00:09:17.223Z,14.90
2017-10-05T00:11:45.922Z,14.90
2017-10-05T00:14:14.552Z,15.00
2017-10-05T00:16:44.102Z,15.10
2017-10-05T00:19:12.822Z,15.10
2017-10-05T00:21:41.511Z,15.10
2017-10-05T00:24:10.414Z,15.00
2017-10-05T00:26:39.862Z,14.80
2017-10-05T00:29:08.754Z,14.80
2017-10-05T00:31:37.666Z,14.90
2017-10-05T00:34:06.594Z,14.80
2017-10-05T00:36:36.322Z,14.70
2017-10-05T00:39:05.152Z,14.70
2017-10-05T00:41:34.353Z,14.70
2017-10-05T00:44:03.363Z,14.60
2017-10-05T00:46:32.162Z,14.60
2017-10-05T00:49:02.083Z,14.60
2017-10-05T00:51:31.954Z,14.60
2017-10-05T00:54:01.122Z,14.60
2017-10-05T00:56:30.334Z,14.60
2017-10-05T00:58:59.373Z,14.60
2017-10-05T01:01:29.322Z,14.60
2017-10-05T01:03:58.286Z,14.60
2017-10-05T01:06:27.803Z,14.50
2017-10-05T01:08:56.634Z,14.50
2017-10-05T01:11:25.712Z,14.60
2017-10-05T01:13:54.563Z,14.60
2017-10-05T01:16:24.182Z,14.70
2017-10-05T01:18:53.183Z,14.70
2017-10-05T01:21:22.113Z,14.80
2017-10-05T01:23:51.094Z,14.90
2017-10-05T01:26:20.175Z,14.90
2017-10-05T01:28:48.945Z,14.90
2017-10-05T01:31:17.475Z,14.90
2017-10-05T01:33:46.502Z,15.00
2017-10-05T01:36:16.074Z,15.10
2017-10-05T01:38:44.937Z,15.00
2017-10-05T01:41:13.974Z,15.00
2017-10-05T01:43:42.293Z,15.00
2017-10-05T01:46:11.252Z,15.10
2017-10-05T01:48:40.919Z,15.10
2017-10-05T01:51:10.082Z,15.00
2017-10-05T01:53:39.123Z,15.10
2017-10-05T01:56:08.883Z,15.10
2017-10-05T01:58:38.172Z,15.10
2017-10-05T02:01:07.172Z,15.10
2017-10-05T02:03:36.523Z,15.10
2017-10-05T02:06:05.594Z,15.20
2017-10-05T02:08:34.803Z,15.20
2017-10-05T02:11:03.503Z,15.20
2017-10-05T02:13:32.463Z,15.20
2017-10-05T02:16:01.674Z,15.30
2017-10-05T02:18:30.742Z,15.20
2017-10-05T02:20:59.622Z,15.10
2017-10-05T02:23:29.274Z,14.90
2017-10-05T02:25:58.234Z,15.00
2017-10-05T02:28:27.183Z,14.90
2017-10-05T02:30:55.715Z,14.90
2017-10-05T02:33:24.747Z,14.80
2017-10-05T02:35:53.384Z,14.80
2017-10-05T02:38:22.013Z,14.80
2017-10-05T02:40:50.723Z,14.80
2017-10-05T02:43:21.283Z,14.60
2017-10-05T02:45:50.154Z,14.60
2017-10-05T02:48:18.893Z,14.60
2017-10-05T02:50:47.774Z,14.50
2017-10-05T02:53:16.612Z,14.50
2017-10-05T02:55:46.213Z,14.30
2017-10-05T02:58:15.843Z,14.30
2017-10-05T03:00:44.962Z,14.30
2017-10-05T03:03:13.962Z,14.30
2017-10-05T03:05:43.014Z,14.30
2017-10-05T03:08:11.963Z,14.30
2017-10-05T03:10:40.982Z,14.40
2017-10-05T03:13:10.313Z,14.50
2017-10-05T03:15:39.663Z,14.40
2017-10-05T03:18:08.422Z,14.50
2017-10-05T03:20:37.811Z,14.50
2017-10-05T03:23:06.933Z,14.40
2017-10-05T03:25:35.923Z,14.40
2017-10-05T03:28:04.622Z,14.40
2017-10-05T03:30:33.834Z,14.40
2017-10-05T03:33:02.842Z,14.40
2017-10-05T03:35:32.342Z,14.40
2017-10-05T03:38:01.293Z,14.40
2017-10-05T03:40:30.073Z,14.50
2017-10-05T03:42:58.822Z,14.40
2017-10-05T03:45:27.643Z,14.40
2017-10-05T03:47:56.942Z,14.30
2017-10-05T03:50:26.033Z,14.30
2017-10-05T03:52:55.093Z,14.20
2017-10-05T03:55:24.663Z,14.20
2017-10-05T03:57:53.433Z,14.20
2017-10-05T04:00:22.242Z,14.20
2017-10-05T04:02:50.872Z,14.20
2017-10-05T04:05:19.642Z,14.20
2017-10-05T04:07:49.403Z,14.30
2017-10-05T04:10:18.474Z,14.30
2017-10-05T04:12:47.762Z,14.30
2017-10-05T04:15:16.562Z,14.30
2017-10-05T04:17:45.754Z,14.30
2017-10-05T04:20:15.142Z,14.20
2017-10-05T04:22:45.062Z,14.00
2017-10-05T04:25:13.854Z,14.00
2017-10-05T04:27:42.584Z,14.00
2017-10-05T04:30:11.612Z,13.90
2017-10-05T04:32:41.354Z,13.90
2017-10-05T04:35:10.502Z,13.90
2017-10-05T04:37:39.573Z,14.00
2017-10-05T04:40:08.323Z,14.00
2017-10-05T04:42:37.342Z,14.10
2017-10-05T04:45:06.263Z,14.10
2017-10-05T04:47:34.945Z,14.10
2017-10-05T04:50:03.785Z,14.10
2017-10-05T04:52:32.213Z,14.20
2017-10-05T04:55:00.753Z,14.20
2017-10-05T04:57:29.543Z,14.20
2017-10-05T04:59:58.443Z,14.20
2017-10-05T05:02:26.883Z,14.20
2017-10-05T05:04:56.322Z,14.30
2017-10-05T05:07:25.033Z,14.20
2017-10-05T05:09:53.862Z,14.20
2017-10-05T05:12:22.414Z,14.20
2017-10-05T05:14:51.134Z,14.30
2017-10-05T05:17:20.138Z,14.30
2017-10-05T05:19:49.183Z,14.30
2017-10-05T05:22:18.322Z,14.30
2017-10-05T05:24:47.175Z,14.20
2017-10-05T05:27:16.087Z,14.20
2017-10-05T05:29:45.702Z,14.10
2017-10-05T05:32:14.823Z,14.10
2017-10-05T05:34:44.115Z,14.20
2017-10-05T05:37:13.235Z,14.40
2017-10-05T05:39:42.343Z,14.30
2017-10-05T05:42:11.203Z,14.30
2017-10-05T05:44:39.651Z,14.40
2017-10-05T05:47:09.463Z,14.40
2017-10-05T05:49:38.873Z,14.40
2017-10-05T05:52:07.774Z,14.40
2017-10-05T05:54:37.262Z,14.40
2017-10-05T05:57:06.802Z,14.40
2017-10-05T05:59:35.822Z,14.40
2017-10-05T06:02:04.574Z,14.50
2017-10-05T06:04:33.622Z,14.40
2017-10-05T06:07:03.682Z,14.20
2017-10-05T06:09:32.584Z,14.20
2017-10-05T06:12:01.630Z,14.20
2017-10-05T06:14:30.465Z,14.30
2017-10-05T06:16:59.461Z,14.30
2017-10-05T06:19:28.181Z,14.30
2017-10-05T06:21:57.111Z,14.30
2017-10-05T06:24:25.903Z,14.30
2017-10-05T06:26:54.993Z,14.30
2017-10-05T06:29:24.015Z,14.30
2017-10-05T06:31:53.213Z,14.30
2017-10-05T06:34:22.194Z,14.30
2017-10-05T06:36:51.274Z,14.30
2017-10-05T06:39:20.261Z,14.30
2017-10-05T06:41:48.983Z,14.30
2017-10-05T06:44:18.003Z,14.40
2017-10-05T06:46:47.294Z,14.40
2017-10-05T06:49:16.234Z,14.50
2017-10-05T06:51:44.886Z,14.50
2017-10-05T06:54:14.601Z,14.60
2017-10-05T06:56:44.374Z,14.60
2017-10-05T06:59:13.103Z,14.60
2017-10-05T07:01:42.975Z,14.70
2017-10-05T07:04:11.775Z,14.70
2017-10-05T07:06:40.703Z,14.70
2017-10-05T07:09:10.051Z,14.90
2017-10-05T07:11:39.181Z,14.80
2017-10-05T07:14:08.708Z,14.90
2017-10-05T07:16:37.846Z,14.90
2017-10-05T07:19:06.792Z,15.10
2017-10-05T07:21:36.442Z,15.50
2017-10-05T07:24:05.153Z,15.50
2017-10-05T07:26:34.101Z,15.70
2017-10-05T07:29:02.823Z,15.80
2017-10-05T07:31:31.474Z,15.90
2017-10-05T07:34:00.603Z,15.90
2017-10-05T07:36:29.172Z,16.00
2017-10-05T07:38:58.586Z,16.00
2017-10-05T07:41:27.962Z,16.00
2017-10-05T07:43:57.362Z,16.20
2017-10-05T07:46:26.734Z,16.20
2017-10-05T07:48:55.763Z,16.40
2017-10-05T07:51:24.823Z,16.50
2017-10-05T07:53:54.043Z,16.60
2017-10-05T07:56:23.136Z,16.60
2017-10-05T07:58:51.843Z,16.50
2017-10-05T08:01:20.681Z,16.60
2017-10-05T08:03:50.742Z,16.70
2017-10-05T08:06:19.342Z,16.60
2017-10-05T08:08:47.994Z,16.70
2017-10-05T08:11:17.055Z,16.70
2017-10-05T08:13:47.134Z,16.80
2017-10-05T08:16:16.173Z,16.80
2017-10-05T08:18:45.536Z,17.00
2017-10-05T08:21:14.223Z,17.00
2017-10-05T08:23:43.102Z,17.00
2017-10-05T08:26:11.842Z,16.90
2017-10-05T08:28:40.854Z,16.80
2017-10-05T08:31:09.841Z,16.80
2017-10-05T08:33:39.043Z,16.80
2017-10-05T08:36:07.874Z,16.90
2017-10-05T08:38:36.331Z,17.00
2017-10-05T08:41:05.083Z,17.00
2017-10-05T08:43:34.085Z,17.20
2017-10-05T08:46:03.343Z,17.30
2017-10-05T08:48:33.521Z,17.40
2017-10-05T08:51:02.621Z,17.40
2017-10-05T08:53:31.453Z,17.50
2017-10-05T08:56:01.544Z,17.50
2017-10-05T08:58:30.853Z,17.50
2017-10-05T09:01:00.102Z,17.30
2017-10-05T09:03:29.363Z,17.30
2017-10-05T09:05:58.932Z,17.30
2017-10-05T09:08:28.233Z,17.30
2017-10-05T09:10:57.595Z,17.40
2017-10-05T09:13:26.657Z,17.50
2017-10-05T09:15:56.243Z,17.70
2017-10-05T09:18:26.203Z,17.90
2017-10-05T09:20:54.837Z,17.90
2017-10-05T09:23:23.752Z,18.10
2017-10-05T09:25:52.782Z,18.10
2017-10-05T09:28:21.357Z,18.30
2017-10-05T09:30:50.323Z,18.30
2017-10-05T09:33:18.855Z,18.30
2017-10-05T09:35:48.135Z,18.40
2017-10-05T09:38:17.055Z,18.50
2017-10-05T09:40:46.121Z,18.70
2017-10-05T09:43:15.012Z,18.70
2017-10-05T09:45:43.882Z,18.80
2017-10-05T09:48:13.693Z,19.10
2017-10-05T09:50:43.814Z,19.20
2017-10-05T09:53:13.615Z,19.20
2017-10-05T09:55:42.551Z,19.10
2017-10-05T09:58:11.814Z,19.20
2017-10-05T10:00:41.574Z,19.40
2017-10-05T10:03:10.603Z,19.40
2017-10-05T10:05:40.083Z,19.50
2017-10-05T10:08:08.934Z,19.50
2017-10-05T10:10:37.974Z,19.50
2017-10-05T10:13:06.913Z,19.60
2017-10-05T10:15:35.914Z,19.60
2017-10-05T10:18:04.223Z,19.70
2017-10-05T10:20:33.136Z,19.80
2017-10-05T10:23:03.095Z,20.00
2017-10-05T10:25:31.762Z,20.00
2017-10-05T10:28:00.735Z,20.00
2017-10-05T10:30:30.305Z,20.20
2017-10-05T10:32:59.475Z,20.20
2017-10-05T10:35:28.603Z,20.30
2017-10-05T10:37:57.463Z,20.30
2017-10-05T10:40:26.574Z,20.40
2017-10-05T10:42:55.602Z,20.70
2017-10-05T10:45:25.153Z,21.00
2017-10-05T10:47:53.975Z,21.00
2017-10-05T10:50:22.812Z,21.20
2017-10-05T10:52:52.083Z,21.40
2017-10-05T10:55:20.585Z,21.40
2017-10-05T10:57:50.716Z,21.60
2017-10-05T11:00:20.463Z,21.60
2017-10-05T11:02:49.491Z,21.80
2017-10-05T11:05:19.583Z,22.30
2017-10-05T11:07:48.723Z,22.30
2017-10-05T11:10:17.567Z,22.60
2017-10-05T11:12:49.438Z,22.80
2017-10-05T11:15:18.212Z,22.80
2017-10-05T11:17:47.252Z,22.70
2017-10-05T11:20:17.264Z,23.10
2017-10-05T11:22:47.002Z,23.10
2017-10-05T11:25:16.074Z,23.10
2017-10-05T11:27:45.553Z,23.40
2017-10-05T11:30:14.614Z,23.40
2017-10-05T11:32:43.615Z,23.70
2017-10-05T11:35:12.596Z,23.70
2017-10-05T11:37:41.523Z,23.60
2017-10-05T11:40:10.994Z,23.90
2017-10-05T11:42:39.737Z,23.90
2017-10-05T11:45:09.693Z,24.40
2017-10-05T11:47:38.333Z,24.40
2017-10-05T11:50:08.014Z,24.90
2017-10-05T11:52:36.923Z,24.90
2017-10-05T11:55:06.642Z,24.90
2017-10-05T11:57:36.215Z,24.90
2017-10-05T12:00:04.874Z,24.80
2017-10-05T12:02:33.894Z,24.80
2017-10-05T12:05:02.794Z,24.50
2017-10-05T12:07:32.022Z,24.50
2017-10-05T12:10:01.803Z,24.20
2017-10-05T12:12:31.283Z,24.20
2017-10-05T12:15:00.429Z,24.00
2017-10-05T12:17:30.282Z,24.10
2017-10-05T12:19:59.433Z,24.10
2017-10-05T12:22:30.174Z,24.20
2017-10-05T12:25:00.475Z,23.90
2017-10-05T12:27:29.604Z,24.00
2017-10-05T12:29:58.943Z,24.00
2017-10-05T12:32:29.721Z,23.90
2017-10-05T12:34:58.613Z,23.90
2017-10-05T12:37:28.663Z,23.70
2017-10-05T12:39:57.673Z,23.70
2017-10-05T12:42:26.743Z,23.50
2017-10-05T12:44:55.903Z,23.40
2017-10-05T12:47:25.735Z,23.30
2017-10-05T12:49:55.034Z,23.30
2017-10-05T12:52:23.673Z,23.10
2017-10-05T12:54:52.453Z,23.00
2017-10-05T12:57:21.313Z,23.00
2017-10-05T12:59:50.422Z,22.90
2017-10-05T13:02:19.574Z,22.80
2017-10-05T13:04:49.068Z,22.50
2017-10-05T13:07:18.674Z,22.60
2017-10-05T13:09:48.702Z,22.60
2017-10-05T13:12:17.535Z,22.60
2017-10-05T13:14:46.462Z,22.60
2017-10-05T13:17:15.663Z,22.60
2017-10-05T13:19:45.622Z,22.40
2017-10-05T13:22:14.643Z,22.40
2017-10-05T13:24:43.642Z,22.30
2017-10-05T13:27:12.822Z,22.30
2017-10-05T13:29:42.173Z,22.30
2017-10-05T13:32:12.519Z,22.30
2017-10-05T13:34:41.743Z,22.30
2017-10-05T13:37:10.534Z,22.30
2017-10-05T13:39:39.362Z,22.20
2017-10-05T13:42:08.973Z,22.00
2017-10-05T13:44:39.014Z,21.90
2017-10-05T13:47:08.243Z,21.80
2017-10-05T13:49:37.296Z,21.80
2017-10-05T13:52:07.854Z,21.90
2017-10-05T13:54:36.893Z,21.90
2017-10-05T13:57:05.714Z,21.90
2017-10-05T13:59:34.741Z,22.00
2017-10-05T14:02:03.655Z,22.00
2017-10-05T14:04:32.213Z,22.00
2017-10-05T14:07:01.075Z,22.00
2017-10-05T14:09:30.293Z,22.00
2017-10-05T14:11:58.976Z,22.10
2017-10-05T14:14:27.821Z,22.20
2017-10-05T14:16:57.573Z,22.50
2017-10-05T14:19:26.553Z,22.40
2017-10-05T14:21:55.542Z,22.50
2017-10-05T14:24:24.582Z,22.50
2017-10-05T14:26:54.663Z,22.50
2017-10-05T14:29:23.613Z,22.50
2017-10-05T14:31:54.496Z,22.50
2017-10-05T14:34:23.714Z,22.50
2017-10-05T14:36:53.062Z,22.50
2017-10-05T14:39:22.663Z,22.50
2017-10-05T14:41:52.642Z,22.50
2017-10-05T14:44:21.483Z,22.50
2017-10-05T14:46:50.802Z,22.60
2017-10-05T14:49:20.152Z,23.20
2017-10-05T14:51:49.323Z,23.10
2017-10-05T14:54:18.182Z,22.90
2017-10-05T14:56:47.403Z,22.80
2017-10-05T14:59:16.342Z,22.60
2017-10-05T15:01:45.813Z,22.40
2017-10-05T15:04:14.571Z,22.40
2017-10-05T15:06:43.423Z,22.50
2017-10-05T15:09:12.995Z,22.60
2017-10-05T15:11:41.534Z,22.50
2017-10-05T15:14:10.543Z,22.60
2017-10-05T15:16:39.441Z,22.60
2017-10-05T15:19:08.402Z,22.70
2017-10-05T15:21:37.274Z,22.60
2017-10-05T15:24:06.863Z,22.50
2017-10-05T15:26:35.683Z,22.50
2017-10-05T15:29:04.282Z,22.50
2017-10-05T15:31:33.443Z,22.50
2017-10-05T15:34:03.393Z,22.50
2017-10-05T15:36:32.562Z,22.50
2017-10-05T15:39:02.563Z,22.60
2017-10-05T15:41:32.203Z,22.60
2017-10-05T15:44:01.243Z,22.50
2017-10-05T15:46:30.514Z,22.60
2017-10-05T15:48:59.543Z,22.60
2017-10-05T15:51:29.551Z,22.60
2017-10-05T15:53:58.423Z,22.50
2017-10-05T15:56:27.482Z,22.50
2017-10-05T15:58:56.582Z,22.50
2017-10-05T16:01:26.074Z,22.40
2017-10-05T16:03:55.544Z,22.30
2017-10-05T16:06:24.883Z,22.30
2017-10-05T16:08:53.903Z,22.30
2017-10-05T16:11:23.083Z,22.30
2017-10-05T16:13:51.882Z,22.20
2017-10-05T16:16:20.754Z,22.20
2017-10-05T16:18:49.755Z,22.10
2017-10-05T16:21:18.913Z,22.10
2017-10-05T16:23:47.772Z,22.00
2017-10-05T16:26:16.413Z,22.00
2017-10-05T16:28:45.603Z,22.00
2017-10-05T16:31:14.492Z,21.90
2017-10-05T16:33:44.143Z,21.90
2017-10-05T16:36:13.042Z,21.90
2017-10-05T16:38:41.754Z,21.90
2017-10-05T16:41:12.762Z,21.80
2017-10-05T16:43:42.074Z,21.80
2017-10-05T16:46:11.015Z,21.80
2017-10-05T16:48:40.454Z,21.80
2017-10-05T16:51:09.593Z,21.80
2017-10-05T16:53:39.171Z,21.70
2017-10-05T16:56:08.274Z,21.70
2017-10-05T16:58:39.003Z,21.60
2017-10-05T17:01:08.313Z,21.60
2017-10-05T17:03:37.622Z,21.50
2017-10-05T17:06:07.414Z,21.20
2017-10-05T17:08:36.503Z,21.20
2017-10-05T17:11:05.474Z,21.00
2017-10-05T17:13:34.263Z,20.90
2017-10-05T17:16:03.135Z,20.80
2017-10-05T17:18:32.234Z,20.70
2017-10-05T17:21:01.262Z,20.70
2017-10-05T17:23:30.234Z,20.60
2017-10-05T17:25:59.122Z,20.50
2017-10-05T17:28:27.954Z,20.40
2017-10-05T17:30:56.713Z,20.30
2017-10-05T17:33:25.694Z,20.30
2017-10-05T17:35:54.651Z,20.30
2017-10-05T17:38:23.714Z,20.30
2017-10-05T17:40:53.983Z,20.30
2017-10-05T17:43:22.835Z,20.30
2017-10-05T17:45:52.102Z,20.20
2017-10-05T17:48:21.063Z,20.20
2017-10-05T17:50:50.422Z,20.20
2017-10-05T17:53:20.074Z,20.10
2017-10-05T17:55:49.174Z,20.10
2017-10-05T17:58:18.203Z,20.00
2017-10-05T18:00:48.695Z,20.00
2017-10-05T18:03:17.595Z,20.00
2017-10-05T18:05:46.863Z,20.00
2017-10-05T18:08:16.081Z,20.00
2017-10-05T18:10:45.135Z,20.00
2017-10-05T18:13:15.223Z,20.10
2017-10-05T18:15:44.183Z,20.10
2017-10-05T18:18:13.354Z,20.00
2017-10-05T18:20:43.081Z,19.90
2017-10-05T18:23:12.101Z,19.90
2017-10-05T18:25:40.983Z,19.80
2017-10-05T18:28:10.044Z,19.70
2017-10-05T18:30:38.795Z,19.70
2017-10-05T18:33:09.183Z,19.40
2017-10-05T18:35:37.994Z,19.40
2017-10-05T18:38:06.554Z,19.30
2017-10-05T18:40:35.496Z,19.00
2017-10-05T18:43:04.774Z,18.90
2017-10-05T18:45:33.694Z,18.90
2017-10-05T18:48:03.503Z,18.80
2017-10-05T18:50:32.043Z,18.80
2017-10-05T18:53:00.823Z,18.60
2017-10-05T18:55:29.883Z,18.60
2017-10-05T18:57:59.135Z,18.80
2017-10-05T19:00:29.243Z,18.80
2017-10-05T19:02:59.203Z,18.90
2017-10-05T19:05:28.864Z,18.90
2017-10-05T19:07:57.503Z,18.90
2017-10-05T19:10:26.954Z,18.90
2017-10-05T19:12:55.375Z,19.00
2017-10-05T19:15:25.184Z,19.00
2017-10-05T19:17:54.717Z,19.00
2017-10-05T19:20:23.734Z,18.90
2017-10-05T19:22:52.631Z,18.90
2017-10-05T19:25:21.504Z,18.80
2017-10-05T19:27:50.353Z,18.70
2017-10-05T19:30:20.196Z,18.60
2017-10-05T19:32:49.490Z,18.50
2017-10-05T19:35:18.451Z,18.50
2017-10-05T19:37:48.164Z,18.20
2017-10-05T19:40:17.644Z,18.20
2017-10-05T19:42:46.742Z,18.20
2017-10-05T19:45:15.624Z,18.10
2017-10-05T19:47:44.274Z,18.10
2017-10-05T19:50:13.636Z,18.10
2017-10-05T19:52:43.174Z,18.10
2017-10-05T19:55:11.855Z,18.00
2017-10-05T19:57:40.903Z,18.00
2017-10-05T20:00:09.743Z,17.90
2017-10-05T20:02:38.936Z,17.90
2017-10-05T20:05:08.002Z,17.90
2017-10-05T20:07:37.428Z,17.70
2017-10-05T20:10:06.615Z,17.70
2017-10-05T20:12:36.455Z,17.70
2017-10-05T20:15:10.682Z,17.60
2017-10-05T20:17:45.035Z,17.60
2017-10-05T20:20:30.954Z,17.50
2017-10-05T20:23:01.234Z,17.40
2017-10-05T20:25:31.799Z,17.40
2017-10-05T20:28:05.708Z,17.40
2017-10-05T20:30:37.234Z,17.30
2017-10-05T20:33:07.155Z,17.20
2017-10-05T20:35:36.843Z,17.10
2017-10-05T20:38:05.536Z,17.10
2017-10-05T20:40:34.424Z,17.10
2017-10-05T20:43:03.524Z,17.20
2017-10-05T20:45:33.303Z,17.10
2017-10-05T20:48:02.363Z,17.10
2017-10-05T20:50:31.112Z,17.10
2017-10-05T20:52:59.703Z,17.10
2017-10-05T20:55:29.653Z,16.90
2017-10-05T20:57:58.324Z,16.90
2017-10-05T21:00:27.447Z,16.90
2017-10-05T21:02:56.355Z,16.90
2017-10-05T21:05:25.064Z,16.90
2017-10-05T21:07:53.603Z,16.90
2017-10-05T21:10:22.796Z,16.80
2017-10-05T21:12:51.662Z,16.80
2017-10-05T21:15:20.574Z,16.80
2017-10-05T21:17:49.635Z,16.70
2017-10-05T21:20:19.323Z,16.60
2017-10-05T21:22:49.454Z,16.60
2017-10-05T21:25:19.175Z,16.60
2017-10-05T21:27:48.852Z,16.70
2017-10-05T21:30:17.542Z,16.60
2017-10-05T21:32:46.592Z,16.70
2017-10-05T21:35:15.803Z,16.70
2017-10-05T21:37:45.064Z,16.60
2017-10-05T21:40:14.354Z,16.60
2017-10-05T21:42:43.975Z,16.50
2017-10-05T21:45:12.775Z,16.50
2017-10-05T21:47:41.694Z,16.40
2017-10-05T21:50:10.874Z,16.30
2017-10-05T21:52:39.654Z,16.30
2017-10-05T21:55:08.756Z,16.30
2017-10-05T21:57:37.823Z,16.30
2017-10-05T22:05:29.303Z,14.70
2017-10-05T22:07:59.680Z,14.70
2017-10-05T22:10:28.351Z,14.40
2017-10-05T22:12:56.492Z,14.40
2017-10-05T22:15:24.716Z,14.30
2017-10-05T22:17:54.218Z,14.30
2017-10-05T22:20:22.517Z,14.30
2017-10-05T22:22:50.873Z,14.30
2017-10-05T22:25:19.425Z,14.20
2017-10-05T22:27:47.931Z,14.10
2017-10-05T22:30:17.010Z,14.20
2017-10-05T22:32:45.170Z,14.20
2017-10-05T22:35:13.672Z,14.20
2017-10-05T22:37:41.933Z,14.10
2017-10-05T22:40:10.333Z,14.00
2017-10-05T22:42:38.717Z,14.10
2017-10-05T22:45:08.018Z,14.30
2017-10-05T22:47:37.386Z,14.40
2017-10-05T22:50:05.878Z,14.40
2017-10-05T22:52:34.358Z,14.30
2017-10-05T22:55:02.652Z,14.40
2017-10-05T22:57:31.952Z,14.50
2017-10-05T23:00:00.094Z,14.40
2017-10-05T23:02:28.395Z,14.40
2017-10-05T23:04:56.734Z,14.50
2017-10-05T23:07:24.828Z,14.40
2017-10-05T23:09:53.214Z,14.30
2017-10-05T23:12:21.594Z,14.30
2017-10-05T23:14:49.857Z,14.20
2017-10-05T23:17:18.042Z,14.20
2017-10-05T23:19:46.289Z,14.20
2017-10-05T23:22:14.470Z,14.20
2017-10-05T23:24:42.882Z,14.10
2017-10-05T23:27:11.862Z,13.90
2017-10-05T23:29:41.170Z,13.80
2017-10-05T23:32:10.049Z,13.70
2017-10-05T23:34:38.349Z,13.70
2017-10-05T23:37:07.408Z,13.80
2017-10-05T23:39:35.856Z,13.70
2017-10-05T23:42:04.268Z,13.80
2017-10-05T23:44:32.509Z,13.80
2017-10-05T23:47:01.048Z,13.80
2017-10-05T23:49:30.129Z,13.80
2017-10-05T23:51:58.592Z,13.80
2017-10-05T23:54:26.724Z,13.80
2017-10-05T23:56:55.158Z,13.80
2017-10-05T23:59:23.538Z,13.80
